Latest Coastal Weather Observations for Kingscote

IDS60701

Issued at 7:05 am CDT Sunday 26 October 2014 (issued every 10 minutes, with the page automatically refreshed every 10 minutes)

About coastal observations | Map of coastal stations | Coastal observations for SA | Marine services | Other Formats
Station Details ID: 022841 Name: KINGSCOTE AERO Lat: -35.71 Lon: 137.52 Height: 6.23 m
Data from the previous 72 hours. | See also: Recent months at Kingscote
Date/Time
CDT
Temp

°C
Wind Pressure Rain
since 9am
mm
Weather Cloud Vis
km
Sea
Height
m
Swell
Dir
 
Speed
knots
Gust
knots
hPa Trend Height
m
Period
s
Dir
26/07:00am 13.0 SSW 4 8 1015.0 - 0.0 - - 10 - - - -
26/06:40am 12.9 WSW 5 8 1015.3 - 0.0 - Partly cloudy 10 - - - -
26/06:30am 12.9 W 8 9 1015.7 - 0.0 - Partly cloudy 10 - - - -
26/06:09am 12.4 WNW 11 13 1014.5 - 0.0 - Partly cloudy 10 - - - -
26/06:00am 12.4 CALM 0 0 1012.7 - 0.0 - Mostly clear 10 - - - -
26/05:38am 12.3 SE 3 3 1012.7 - 0.0 - Partly cloudy 10 - - - -
26/05:30am 12.3 SE 3 4 1012.9 - 0.0 - Partly cloudy 10 - - - -
26/05:00am 13.0 SE 5 6 1012.9 - 0.0 - Cloudy 10 - - - -
26/04:30am 13.3 SSE 6 7 1012.8 - 0.0 - Cloudy 10 - - - -
26/04:00am 13.5 SSE 6 7 1013.0 - 0.0 - Cloudy 10 - - - -
26/03:30am 13.5 SSE 6 7 1013.5 - 0.0 - Cloudy 10 - - - -
26/03:00am 13.5 SSE 5 7 1013.6 - 0.0 - Cloudy 10 - - - -
26/02:30am 13.7 E 4 6 1013.7 - 0.0 - Cloudy 10 - - - -
26/02:00am 13.7 ESE 6 7 1013.6 - 0.0 - Cloudy 10 - - - -
26/01:30am 13.9 E 9 12 1014.1 - 0.0 - Cloudy 10 - - - -
26/01:00am 14.1 ESE 6 10 1014.9 - 0.0 - Cloudy 10 - - - -
26/12:30am 14.2 ESE 7 9 1015.4 - 0.0 - Cloudy 10 - - - -
26/12:00am 14.4 ESE 6 9 1015.5 - 0.0 - Cloudy 10 - - - -
 
Date/Time
CDT
Temp

°C
Wind Pressure Rain
since 9am
mm
Weather Cloud Vis
km
Sea
Height
m
Swell
Dir
 
Speed
knots
Gust
knots
hPa Trend Height
m
Period
s
Dir
25/11:30pm 14.4 SE 7 10 1015.6 - 0.0 - Cloudy 10 - - - -
25/11:00pm 13.8 SE 5 8 1015.8 - 0.0 - Cloudy 10 - - - -
25/10:30pm 13.9 SSE 7 9 1016.3 - 0.0 - Partly cloudy 10 - - - -
25/10:25pm 14.1 SSE 8 10 1016.3 - 0.0 - Partly cloudy 10 - - - -
25/10:00pm 14.5 SE 8 10 1016.5 - 0.0 - Cloudy 10 - - - -
25/09:30pm 14.8 ESE 4 6 1017.0 - 0.0 - Cloudy 10 - - - -
25/09:00pm 14.9 SSE 6 7 1017.1 - 0.0 - Mostly cloudy 10 - - - -
25/08:30pm 14.9 SSE 5 8 1017.2 - 0.0 - Cloudy 10 - - - -
25/08:00pm 15.0 SE 7 9 1016.9 - 0.0 - Partly cloudy 10 - - - -
25/07:30pm 15.7 SSE 7 10 1016.7 - 0.0 - Partly cloudy 10 - - - -
25/07:00pm 16.2 SE 9 11 1016.1 - 0.0 - Partly cloudy 10 - - - -
25/06:30pm 17.6 SE 8 11 1016.0 - 0.0 - - 10 - - - -
25/06:00pm 18.7 SE 8 10 1016.1 - 0.0 - Partly cloudy 10 - - - -
25/05:30pm 18.6 SE 9 11 1016.2 - 0.0 - Cloudy 10 - - - -
25/05:00pm 19.1 SE 11 14 1016.0 - 0.0 - Cloudy 10 - - - -
25/04:30pm 19.8 SE 8 13 1016.0 - 0.0 - Cloudy 10 - - - -
25/04:00pm 21.4 SE 9 14 1015.9 - 0.0 - Partly cloudy 10 - - - -
25/03:30pm 20.0 ESE 10 14 1016.0 - 0.0 - Cloudy 10 - - - -
25/03:00pm 20.8 E 10 13 1016.1 - 0.0 - Partly cloudy 10 - - - -
25/02:30pm 21.2 SSE 8 13 1016.3 - 0.0 - Partly cloudy 10 - - - -
25/02:00pm 21.8 E 8 12 1016.5 - 0.0 - Partly cloudy 10 - - - -
25/01:30pm 22.9 N 7 13 1016.4 - 0.0 - Partly cloudy 10 - - - -
25/01:00pm 22.2 S 4 6 1016.6 - 0.0 - - 10 - - - -
25/12:30pm 21.5 ESE 5 11 1016.9 - 0.0 - Partly cloudy 10 - - - -
25/12:00pm 21.2 S 7 11 1017.4 - 0.0 - Mostly clear 10 - - - -
25/11:30am 20.6 S 6 9 1017.6 - 0.0 - Partly cloudy 10 - - - -
25/11:00am 19.6 SSW 6 12 1017.8 - 0.0 - Partly cloudy 10 - - - -
25/10:30am 19.5 S 6 10 1017.8 - 0.0 - Partly cloudy 10 - - - -
25/10:00am 18.9 SE 3 7 1018.1 - 0.0 - Partly cloudy 10 - - - -
25/09:30am 17.0 S 4 7 1018.3 - 0.0 - Partly cloudy 10 - - - -
25/09:00am 16.1 SSW 5 7 1018.4 - 0.0 - Mostly cloudy 10 - - - -
25/08:30am 15.8 SSE 5 8 1018.4 - 0.0 - Cloudy 10 - - - -
25/08:00am 15.5 SE 7 8 1018.3 - 0.0 - Cloudy 10 - - - -
25/07:30am 14.9 SSE 5 7 1018.1 - 0.0 - Cloudy 10 - - - -
25/07:00am 14.8 SSE 5 7 1017.5 - 0.0 - Cloudy 10 - - - -
25/06:30am 14.6 SE 7 9 1017.3 - 0.0 - Cloudy 10 - - - -
25/06:00am 14.6 SSE 4 7 1016.9 - 0.0 - Cloudy 10 - - - -
25/05:30am 14.7 SSE 6 9 1016.8 - 0.0 - Cloudy 10 - - - -
25/05:00am 14.7 SE 9 11 1016.5 - 0.0 - Cloudy 10 - - - -
25/04:30am 14.9 SSE 8 11 1016.3 - 0.0 - Cloudy 10 - - - -
25/04:00am 14.8 SE 9 13 1016.1 - 0.0 - Cloudy 10 - - - -
25/03:30am 14.9 ESE 11 13 1016.0 - 0.0 - Cloudy 10 - - - -
25/03:00am 14.8 SE 7 9 1015.9 - 0.0 - Cloudy 10 - - - -
25/02:30am 14.4 SSE 8 11 1015.9 - 0.0 - Cloudy 10 - - - -
25/02:00am 13.9 SSE 5 8 1016.1 - 0.0 - Cloudy 10 - - - -
25/01:30am 13.4 S 5 7 1016.3 - 0.0 - Cloudy 10 - - - -
25/01:00am 12.3 S 5 7 1016.5 - 0.0 - Cloudy 10 - - - -
25/12:32am 12.0 S 6 6 1016.7 - 0.0 - Partly cloudy 10 - - - -
25/12:30am 11.8 S 6 6 1016.7 - 0.0 - Partly cloudy 10 - - - -
25/12:00am 11.9 S 6 7 1017.0 - 0.0 - - 10 - - - -
 
Date/Time
CDT
Temp

°C
Wind Pressure Rain
since 9am
mm
Weather Cloud Vis
km
Sea
Height
m
Swell
Dir
 
Speed
knots
Gust
knots
hPa Trend Height
m
Period
s
Dir
24/11:30pm 12.5 S 5 7 1017.1 - 0.0 - - 10 - - - -
24/11:00pm 12.9 S 6 7 1017.1 - 0.0 - - 10 - - - -
24/10:30pm 13.3 S 6 7 1016.8 - 0.0 - - 10 - - - -
24/10:00pm 13.9 SSW 9 10 1016.7 - 0.0 - - 10 - - - -
24/09:30pm 14.2 SSW 7 9 1016.5 - 0.0 - - 10 - - - -
24/09:00pm 14.2 SSW 6 7 1016.3 - 0.0 - - 10 - - - -
24/08:30pm 14.6 S 6 8 1015.8 - 0.0 - - 10 - - - -
24/08:00pm 15.4 S 8 11 1015.6 - 0.0 - - 10 - - - -
24/07:30pm 16.5 SSW 9 13 1015.2 - 0.0 - - 10 - - - -
24/07:00pm 17.7 S 11 16 1014.9 - 0.0 - - 10 - - - -
24/06:30pm 18.7 SSW 12 16 1014.4 - 0.0 - - 10 - - - -
24/06:00pm 19.8 S 14 17 1013.9 - 0.0 - - 10 - - - -
24/05:30pm 21.1 S 14 17 1014.0 - 0.0 - - 10 - - - -
24/05:00pm 23.2 S 13 17 1013.6 - 0.0 - - 10 - - - -
24/04:30pm 23.6 S 11 15 1013.4 - 0.0 - - 10 - - - -
24/04:00pm 21.3 SE 9 11 1012.7 - 0.0 - Partly cloudy 10 - - - -
24/03:30pm 25.4 E 9 14 1013.0 - 0.0 - - 10 - - - -
24/03:00pm 25.9 E 10 14 1013.3 - 0.0 - - 10 - - - -
24/02:30pm 25.7 ESE 10 13 1013.3 - 0.0 - - 10 - - - -
24/02:00pm 26.1 E 10 13 1013.3 - 0.0 - - 10 - - - -
24/01:30pm 25.3 SSE 17 31 1013.2 - 0.0 - - 10 - - - -
24/01:28pm 25.3 SSE 21 31 1013.2 - 0.0 - - 10 - - - -
24/01:00pm 27.7 WNW 7 11 1013.2 - 0.0 - - 9 - - - -
24/12:30pm 27.9 NW 8 12 1013.2 - 0.0 - - 10 - - - -
24/12:00pm 27.5 WNW 8 15 1013.3 - 0.0 - - 10 - - - -
24/11:30am 25.1 NNE 8 11 1013.9 - 0.0 - - 10 - - - -
24/11:00am 23.7 N 8 11 1014.1 - 0.0 - - 10 - - - -
24/10:30am 22.7 N 9 13 1014.3 - 0.0 - - 10 - - - -
24/10:00am 21.4 N 7 11 1014.4 - 0.0 - - 10 - - - -
24/09:30am 20.5 N 8 11 1014.5 - 0.0 - - 10 - - - -
24/09:00am 18.9 N 5 7 1014.4 - 0.0 - - 10 - - - -
24/08:30am 15.8 N 3 7 1014.2 - 0.0 - - 10 - - - -
24/08:00am 12.7 CALM 0 0 1013.9 - 0.0 - - 10 - - - -
24/07:30am 9.1 CALM 0 0 1013.7 - 0.0 - - 10 - - - -
24/07:00am 8.5 CALM 0 0 1013.7 - 0.0 - - 10 - - - -
24/06:30am 9.1 CALM 0 0 1013.3 - 0.0 - - 10 - - - -
24/06:09am 8.4 W 4 6 1013.1 - 0.0 - - 8 - - - -
24/06:00am 8.6 W 4 6 1013.3 - 0.0 - - 6 - - - -
24/05:50am 8.6 W 4 6 1013.1 - 0.0 - - 5 - - - -
24/05:35am 9.0 WNW 5 6 1012.7 - 0.0 - - 8 - - - -
24/05:30am 9.1 WNW 5 6 1012.8 - 0.0 - - 6 - - - -
24/05:12am 9.3 NW 3 4 1012.5 - 0.0 - - 4 - - - -
24/05:00am 9.2 NW 4 6 1012.7 - 0.0 - - 8 - - - -
24/04:56am 9.3 NW 5 6 1012.6 - 0.0 - - 8 - - - -
24/04:35am 8.4 CALM 0 0 1012.2 - 0.0 - Partly cloudy 4 - - - -
24/04:30am 8.7 CALM 0 0 1011.9 - 0.0 - - 10 - - - -
24/04:00am 8.9 CALM 0 0 1012.2 - 0.0 - - 2 - - - -
24/03:51am 9.0 CALM 0 0 1012.1 - 0.0 - - 4 - - - -
24/03:30am 10.6 CALM 0 0 1012.2 - 0.0 - - 10 - - - -
24/03:00am 11.6 CALM 0 0 1012.6 - 0.0 - Mostly clear 10 - - - -
24/02:58am 11.7 CALM 0 0 1012.7 - 0.0 - Partly cloudy 10 - - - -
24/02:30am 12.2 CALM 0 0 1013.6 - 0.0 - Cloudy 10 - - - -
24/02:00am 12.2 CALM 0 0 1014.1 - 0.0 - Cloudy 10 - - - -
24/01:30am 11.9 CALM 0 0 1014.2 - 0.0 - Partly cloudy 10 - - - -
24/01:00am 12.2 SSW 3 5 1014.6 - 0.0 - Cloudy 10 - - - -
24/12:30am 12.9 SE 5 8 1014.7 - 0.0 - Cloudy 10 - - - -
24/12:00am 13.4 SSE 4 5 1015.4 - 0.0 - Cloudy 10 - - - -
 
Date/Time
CDT
Temp

°C
Wind Pressure Rain
since 9am
mm
Weather Cloud Vis
km
Sea
Height
m
Swell
Dir
 
Speed
knots
Gust
knots
hPa Trend Height
m
Period
s
Dir
23/11:30pm 13.4 S 6 8 1015.5 - 0.0 - Cloudy 10 - - - -
23/11:00pm 13.4 S 5 7 1016.0 - 0.0 - Cloudy 10 - - - -
23/10:30pm 13.4 SSW 3 4 1016.4 - 0.0 - Cloudy 10 - - - -
23/10:00pm 13.2 SSE 7 9 1016.2 - 0.0 - Cloudy 10 - - - -
23/09:30pm 12.3 CALM 0 0 1016.0 - 0.0 - Cloudy 10 - - - -
23/09:00pm 12.0 S 4 5 1016.0 - 0.0 - Partly cloudy 10 - - - -
23/08:55pm 12.0 S 4 5 1015.9 - 0.0 - Partly cloudy 10 - - - -
23/08:30pm 12.4 SSE 5 6 1016.0 - 0.0 - - 10 - - - -
23/08:00pm 13.3 SSE 6 7 1016.1 - 0.0 - - 10 - - - -
23/07:30pm 14.2 SSE 7 9 1015.9 - 0.0 - - 10 - - - -
23/07:00pm 15.7 SE 8 11 1015.9 - 0.0 - - 10 - - - -
23/06:30pm 16.3 SSE 10 13 1015.6 - 0.0 - - 10 - - - -
23/06:00pm 16.7 SSE 9 13 1015.8 - 0.0 - - 10 - - - -
23/05:30pm 17.5 SSE 10 14 1015.6 - 0.0 - - 10 - - - -
23/05:00pm 17.8 SSE 12 15 1015.5 - 0.0 - - 10 - - - -
23/04:30pm 18.4 SSE 10 13 1015.6 - 0.0 - - 10 - - - -
23/04:00pm 18.5 SSE 11 15 1015.7 - 0.0 - - 10 - - - -
23/03:30pm 19.3 SSE 12 16 1016.0 - 0.0 - Partly cloudy 10 - - - -
23/03:00pm 19.0 SSE 12 15 1016.4 - 0.0 - Mostly clear 10 - - - -
23/02:30pm 18.8 SE 11 13 1016.5 - 0.0 - Partly cloudy 10 - - - -
23/02:00pm 19.8 SSE 12 17 1016.9 - 0.0 - Partly cloudy 10 - - - -
23/01:30pm 18.2 SE 11 15 1017.1 - 0.0 - Partly cloudy 10 - - - -
23/01:00pm 17.5 SE 12 15 1017.4 - 0.0 - Partly cloudy 10 - - - -
23/12:30pm 16.8 SSE 13 17 1017.9 - 0.0 - Partly cloudy 10 - - - -
23/12:00pm 17.5 SSE 13 17 1018.2 - 0.0 - Mostly clear 10 - - - -
23/11:30am 17.0 SE 13 17 1018.4 - 0.0 - Partly cloudy 10 - - - -
23/11:00am 17.2 SE 13 18 1018.6 - 0.0 - Partly cloudy 10 - - - -
23/10:30am 16.7 SE 13 17 1018.9 - 0.0 - Partly cloudy 10 - - - -
23/10:27am 16.0 SE 13 17 1018.9 - 0.0 - Partly cloudy 10 - - - -
23/10:00am 15.6 SE 13 20 1019.1 - 0.0 - Partly cloudy 10 - - - -
23/09:30am 15.2 SE 14 19 1019.5 - 0.0 - Partly cloudy 10 - - - -
23/09:00am 15.2 SE 13 18 1019.6 - 0.0 - Mostly cloudy 10 - - - -
23/08:30am 14.6 SE 10 15 1019.6 - 0.0 - Cloudy 10 - - - -
23/08:00am 14.5 SE 12 17 1019.5 - 0.0 - Partly cloudy 10 - - - -
23/07:55am 14.4 SE 13 17 1019.5 - 0.0 - Partly cloudy 10 - - - -
23/07:49am 14.3 SE 13 17 1019.5 - 0.0 - Partly cloudy 10 - - - -
23/07:30am 14.2 SE 11 16 1019.6 - 0.0 - Partly cloudy 10 - - - -

Other Formats:

Comma delimited format used in spreadsheet applications
http://www.bom.gov.au/fwo/IDS60701/IDS60701.95807.axf

JavaScript Object Notation format (JSON) in row-major order
http://www.bom.gov.au/fwo/IDS60701/IDS60701.95807.json